Main page
METAR-TAF:

METAR-TAF

Airports :

Mac Crenshaw Memorial Airport

Greenville, Alabama, United States

latitude: 31-50-44N, longitude: 086-36-38W, elevation: 453 ft

Current weather observation

The report was made 30 minutes ago, at 18:58 UTC
Calm wind
Temperature 93°F
Humidity 47%
Pressure 30.10 in. Hg
Visibility: 10 miles
Overcast at a height of 6000 ft

METAR: KPRN 141858Z AUTO 00000KT 10SM OVC060 34/21 A3010 RMK AO2 SLP138 T03440206

Time: 14:28 (19:28 UTC)


TAF: missing

Weather observations and forecasts of more than 4000 airports (METAR and TAF reports).

The available stations are represented by yellow and red dots on the map.

Hover mouse over dot to see the name of the station.

Then click to see weather observations and forecasts.

To change the map : click on the green buttons with a black cross to zoom in, on the green button with a dash to zoom out, or on the green arrows for adjacent maps.


METAR-TAF: